Time;durP1;ratioP1;P1;durP2;ratioP2;P2;SDS_P1;SDS_P2;PMS_P1;PMS_P2;Temp;Humidity;BMP_temperature;BMP_pressure;BME280_temperature;BME280_humidity;BME280_pressure;Samples;Min_cycle;Max_cycle;Signal;HPM_P1;HPM_P2
2023/02/12 00:01:37;;;;;;;29.42;23.17;;;8.50;87.30;;;;;;5036198;28;20051;-75
2023/02/12 00:04:03;;;;;;;34.42;23.77;;;8.40;87.10;;;;;;5037960;28;20028;-75
2023/02/12 00:06:29;;;;;;;33.45;23.77;;;8.40;87.20;;;;;;5035430;28;20040;-75
2023/02/12 00:08:56;;;;;;;32.72;23.52;;;8.50;87.00;;;;;;5034563;28;20032;-75
2023/02/12 00:11:24;;;;;;;36.28;25.15;;;8.40;86.90;;;;;;5036112;28;20063;-76
2023/02/12 00:13:50;;;;;;;31.70;24.95;;;8.50;86.90;;;;;;5037537;28;20461;-75
2023/02/12 00:16:19;;;;;;;34.00;26.08;;;8.40;87.00;;;;;;5034684;28;20094;-75
2023/02/12 00:18:46;;;;;;;33.53;25.65;;;8.50;86.90;;;;;;5035083;28;20112;-75
2023/02/12 00:21:12;;;;;;;36.58;26.52;;;8.50;87.00;;;;;;5018915;28;20120;-77
2023/02/12 00:23:40;;;;;;;33.20;24.67;;;8.40;86.90;;;;;;5039140;28;20112;-76
2023/02/12 00:26:13;;;;;;;35.25;26.95;;;8.40;87.00;;;;;;5034998;28;20140;-76
2023/02/12 00:28:39;;;;;;;38.35;26.40;;;8.40;87.00;;;;;;5036609;28;20052;-76
2023/02/12 00:31:09;;;;;;;33.83;25.42;;;8.40;87.00;;;;;;5034666;28;20105;-77
2023/02/12 00:33:35;;;;;;;30.55;23.85;;;8.40;87.00;;;;;;5021204;28;20103;-76
2023/02/12 00:36:01;;;;;;;31.63;24.67;;;8.40;87.00;;;;;;5034914;28;20462;-77
2023/02/12 00:38:26;;;;;;;32.20;25.50;;;8.40;86.90;;;;;;5035566;28;20056;-77
2023/02/12 00:40:52;;;;;;;39.70;26.02;;;8.40;86.80;;;;;;5039388;28;20055;-76
2023/02/12 00:43:18;;;;;;;34.45;26.80;;;8.40;86.20;;;;;;5040601;28;20033;-76
2023/02/12 00:45:45;;;;;;;36.00;26.85;;;8.40;85.90;;;;;;5038805;28;20393;-76
2023/02/12 00:48:11;;;;;;;32.38;24.58;;;8.40;85.90;;;;;;5039211;28;20029;-76
2023/02/12 00:50:36;;;;;;;33.42;25.08;;;8.40;86.00;;;;;;5037868;28;20425;-76
2023/02/12 00:53:02;;;;;;;34.80;25.88;;;8.40;86.10;;;;;;5020073;28;20063;-75
2023/02/12 00:55:30;;;;;;;35.22;26.52;;;8.40;86.20;;;;;;5038286;28;20738;-76
2023/02/12 00:57:55;;;;;;;33.97;25.73;;;8.40;86.20;;;;;;5039303;28;20025;-76
2023/02/12 01:00:21;;;;;;;33.40;24.40;;;8.40;86.20;;;;;;5040262;28;20037;-76
2023/02/12 01:02:47;;;;;;;36.13;26.15;;;8.30;86.20;;;;;;5023841;28;20646;-76
2023/02/12 01:05:13;;;;;;;33.83;26.73;;;8.40;86.20;;;;;;5038452;28;20056;-76
2023/02/12 01:07:39;;;;;;;31.55;24.20;;;8.30;86.20;;;;;;5040960;28;20098;-76
2023/02/12 01:10:06;;;;;;;32.20;24.60;;;8.30;86.20;;;;;;5039471;28;20318;-76
2023/02/12 01:12:33;;;;;;;29.75;23.35;;;8.30;86.30;;;;;;5035557;28;20375;-77
2023/02/12 01:14:59;;;;;;;29.65;23.60;;;8.30;86.30;;;;;;5039456;28;20041;-76
2023/02/12 01:17:24;;;;;;;31.70;24.25;;;8.30;86.30;;;;;;5021020;28;20044;-76
2023/02/12 01:19:50;;;;;;;31.45;23.90;;;8.30;86.30;;;;;;5037491;28;20416;-76
2023/02/12 01:22:16;;;;;;;31.95;24.23;;;8.30;86.30;;;;;;5039278;28;20063;-77
2023/02/12 01:24:41;;;;;;;30.25;23.40;;;8.30;86.10;;;;;;5037997;28;20036;-76
2023/02/12 01:27:07;;;;;;;29.80;23.40;;;8.30;86.10;;;;;;5023072;28;20045;-77
2023/02/12 01:29:33;;;;;;;34.60;24.75;;;8.30;86.10;;;;;;5040399;28;20583;-78
2023/02/12 01:31:58;;;;;;;35.80;24.95;;;8.30;86.00;;;;;;5037603;28;20497;-77
2023/02/12 01:34:24;;;;;;;34.08;24.58;;;8.20;85.40;;;;;;5042060;28;20477;-77
2023/02/12 01:36:50;;;;;;;31.95;24.02;;;8.20;85.20;;;;;;5039033;28;20041;-77
2023/02/12 01:39:15;;;;;;;31.63;23.88;;;8.20;85.20;;;;;;5038506;28;20267;-76
2023/02/12 01:41:43;;;;;;;30.48;22.65;;;8.20;85.00;;;;;;5037644;28;20557;-76
2023/02/12 01:44:19;;;;;;;29.17;22.48;;;8.20;85.00;;;;;;5037470;28;20180;-77
2023/02/12 01:46:47;;;;;;;31.00;23.27;;;8.30;85.10;;;;;;5036973;28;20163;-76
2023/02/12 01:49:19;;;;;;;31.63;23.80;;;8.30;85.10;;;;;;5037957;28;20032;-76
2023/02/12 01:51:46;;;;;;;30.73;23.05;;;8.30;85.20;;;;;;5037997;28;20036;-77
2023/02/12 01:54:13;;;;;;;36.40;26.35;;;8.30;85.20;;;;;;5038572;28;20028;-76
2023/02/12 01:56:40;;;;;;;33.60;25.40;;;8.30;85.00;;;;;;5037078;28;20512;-76
2023/02/12 01:59:06;;;;;;;34.20;25.60;;;8.30;84.80;;;;;;5038859;28;20114;-76
2023/02/12 02:01:33;;;;;;;32.72;24.38;;;8.30;84.70;;;;;;5035732;28;20052;-76
2023/02/12 02:04:06;;;;;;;31.55;24.60;;;8.20;84.70;;;;;;5038827;28;20140;-76
2023/02/12 02:06:37;;;;;;;28.77;22.98;;;8.20;84.60;;;;;;5037762;28;20045;-76
2023/02/12 02:09:03;;;;;;;31.13;23.67;;;8.20;84.50;;;;;;5037716;28;20044;-77
2023/02/12 02:14:31;;;;;;;33.20;25.13;;;8.20;84.50;;;;;;5038901;28;20149;-75
2023/02/12 02:17:29;;;;;;;31.58;23.95;;;8.20;84.40;;;;;;5038163;28;20063;-75
2023/02/12 02:20:16;;;;;;;30.75;24.27;;;8.20;84.60;;;;;;4994306;28;20361;-75
2023/02/12 02:23:06;;;;;;;30.52;23.45;;;8.20;84.60;;;;;;5035431;28;20506;-75
2023/02/12 02:25:48;;;;;;;30.17;23.98;;;8.20;84.50;;;;;;5038900;28;20485;-77
2023/02/12 02:28:45;;;;;;;29.48;22.70;;;8.30;84.50;;;;;;5020196;28;20025;-77
2023/02/12 02:31:35;;;;;;;32.22;24.80;;;8.20;84.50;;;;;;5036626;28;20049;-77
2023/02/12 02:34:28;;;;;;;33.60;25.20;;;8.20;84.50;;;;;;5037283;28;20017;-76
2023/02/12 02:37:29;;;;;;;30.77;24.33;;;8.20;84.00;;;;;;5039841;28;20037;-76
2023/02/12 02:40:03;;;;;;;32.80;24.02;;;8.20;83.90;;;;;;5033993;28;20041;-76
2023/02/12 02:42:32;;;;;;;30.83;23.92;;;8.20;83.90;;;;;;5041619;28;20029;-76
2023/02/12 02:45:28;;;;;;;31.17;23.98;;;8.20;83.90;;;;;;5040126;28;20025;-76
2023/02/12 02:48:11;;;;;;;33.00;23.88;;;8.10;83.50;;;;;;5033875;28;20037;-76
2023/02/12 02:50:42;;;;;;;31.70;23.42;;;8.20;83.60;;;;;;5035943;28;20440;-76
2023/02/12 02:53:15;;;;;;;30.83;23.65;;;8.10;83.60;;;;;;5020280;28;20412;-76
2023/02/12 02:55:50;;;;;;;33.97;24.50;;;8.10;83.80;;;;;;5036053;28;20032;-77
2023/02/12 02:58:23;;;;;;;32.67;23.90;;;8.20;83.60;;;;;;5036071;28;20117;-76
2023/02/12 03:00:59;;;;;;;28.65;22.90;;;8.10;83.60;;;;;;5036193;28;20045;-76
2023/02/12 03:03:54;;;;;;;32.40;23.58;;;8.10;83.60;;;;;;5035508;28;20517;-76
2023/02/12 03:06:34;;;;;;;29.63;23.23;;;8.10;83.50;;;;;;5036872;28;20052;-76
2023/02/12 03:09:05;;;;;;;28.85;22.98;;;8.10;83.50;;;;;;5037913;28;20029;-76
2023/02/12 03:11:33;;;;;;;31.55;24.00;;;8.20;83.50;;;;;;5037278;28;20041;-76
2023/02/12 03:14:32;;;;;;;29.02;22.45;;;8.10;83.50;;;;;;5037740;28;20076;-77
2023/02/12 03:17:09;;;;;;;30.33;22.88;;;8.10;83.60;;;;;;5003302;28;20037;-77
2023/02/12 03:19:45;;;;;;;29.10;21.98;;;8.10;83.60;;;;;;5035912;28;20083;-76
2023/02/12 03:22:17;;;;;;;30.80;22.98;;;8.10;83.70;;;;;;5035392;28;20029;-75
2023/02/12 03:24:47;;;;;;;30.75;23.65;;;8.10;83.60;;;;;;5034570;28;20029;-75
2023/02/12 03:27:17;;;;;;;32.75;24.33;;;8.10;83.60;;;;;;5033501;28;20041;-76
2023/02/12 03:29:43;;;;;;;28.88;23.25;;;8.10;83.50;;;;;;5034903;28;20523;-76
2023/02/12 03:32:41;;;;;;;30.85;24.55;;;8.10;83.50;;;;;;5034149;28;20037;-76
2023/02/12 03:35:20;;;;;;;30.35;24.00;;;8.10;83.40;;;;;;5036396;28;20300;-76
2023/02/12 03:38:04;;;;;;;31.88;24.70;;;8.10;83.40;;;;;;5034185;28;20048;-76
2023/02/12 03:40:36;;;;;;;30.33;23.25;;;8.10;83.30;;;;;;5035071;28;20496;-75
2023/02/12 03:43:31;;;;;;;30.52;23.60;;;8.10;83.30;;;;;;5036945;28;20532;-76
2023/02/12 03:46:21;;;;;;;30.13;23.63;;;8.10;83.20;;;;;;5028274;28;20045;-76
2023/02/12 03:49:06;;;;;;;34.28;24.20;;;8.10;83.10;;;;;;5036537;28;20033;-75
2023/02/12 03:51:40;;;;;;;32.15;25.25;;;8.10;82.90;;;;;;5036315;28;20041;-76
2023/02/12 03:54:08;;;;;;;30.30;23.15;;;8.10;82.60;;;;;;5036399;28;20087;-75
2023/02/12 03:56:39;;;;;;;31.67;23.35;;;8.10;82.50;;;;;;5035876;28;20470;-76
2023/02/12 03:59:05;;;;;;;31.63;24.10;;;8.10;82.50;;;;;;5035996;28;20140;-77
2023/02/12 04:01:33;;;;;;;33.13;25.13;;;8.10;82.50;;;;;;5035972;28;20631;-77
2023/02/12 04:04:03;;;;;;;32.88;25.33;;;8.00;82.60;;;;;;5038287;28;20052;-77
2023/02/12 04:06:29;;;;;;;31.13;24.52;;;8.00;81.60;;;;;;5020039;28;20397;-76
2023/02/12 04:08:57;;;;;;;28.92;23.02;;;8.00;81.60;;;;;;5037969;28;20042;-76
2023/02/12 04:11:32;;;;;;;26.40;21.05;;;8.00;80.60;;;;;;5035708;28;20036;-76
2023/02/12 04:14:23;;;;;;;27.73;22.15;;;8.00;79.00;;;;;;5038349;28;20476;-77
2023/02/12 04:17:17;;;;;;;28.63;22.25;;;8.10;78.70;;;;;;5040706;28;20527;-77
2023/02/12 04:19:57;;;;;;;30.92;24.02;;;8.10;78.30;;;;;;5039304;28;20029;-75
2023/02/12 04:22:50;;;;;;;28.90;23.95;;;8.10;78.10;;;;;;5038306;28;20044;-75
2023/02/12 04:25:48;;;;;;;33.13;25.08;;;8.20;78.00;;;;;;5040307;28;20029;-76
2023/02/12 04:28:39;;;;;;;32.63;25.65;;;8.10;78.30;;;;;;5038417;28;20064;-76
2023/02/12 04:31:34;;;;;;;32.47;25.10;;;8.10;78.80;;;;;;5005798;28;20044;-77
2023/02/12 04:34:13;;;;;;;32.70;25.42;;;8.10;78.90;;;;;;5038974;28;20086;-75
2023/02/12 04:37:07;;;;;;;33.45;25.88;;;8.10;79.10;;;;;;5038586;28;20083;-75
2023/02/12 04:39:36;;;;;;;29.92;23.88;;;8.00;79.10;;;;;;5041243;28;20050;-76
2023/02/12 04:42:02;;;;;;;30.63;24.25;;;8.00;79.30;;;;;;5038873;28;20029;-76
2023/02/12 04:44:32;;;;;;;30.83;23.75;;;8.00;79.50;;;;;;5040912;28;20516;-76
2023/02/12 04:46:58;;;;;;;31.42;25.15;;;8.00;79.80;;;;;;5040678;28;20041;-77
2023/02/12 04:49:25;;;;;;;31.48;24.63;;;7.90;80.00;;;;;;5041219;28;20448;-76
2023/02/12 04:51:51;;;;;;;33.38;24.45;;;8.00;80.10;;;;;;5038919;28;20036;-76
2023/02/12 04:54:18;;;;;;;34.67;25.98;;;8.00;80.30;;;;;;5039010;28;20369;-76
2023/02/12 04:56:45;;;;;;;34.20;25.90;;;8.00;80.40;;;;;;5039686;28;20607;-77
2023/02/12 04:59:10;;;;;;;31.95;25.13;;;8.00;80.50;;;;;;5039252;28;20041;-76
2023/02/12 05:01:37;;;;;;;31.15;24.90;;;8.00;80.50;;;;;;5041812;28;20131;-76
2023/02/12 05:04:04;;;;;;;31.42;24.85;;;8.00;80.70;;;;;;5022898;28;20032;-77
2023/02/12 05:06:30;;;;;;;31.42;24.88;;;8.00;80.70;;;;;;5020324;28;20430;-75
2023/02/12 05:08:56;;;;;;;30.45;24.63;;;7.90;80.80;;;;;;5038437;28;20123;-77
2023/02/12 05:11:22;;;;;;;34.17;26.42;;;7.90;80.90;;;;;;5037301;28;20032;-77
2023/02/12 05:13:49;;;;;;;34.78;27.83;;;7.90;80.70;;;;;;5039979;28;20052;-76
2023/02/12 05:16:15;;;;;;;32.95;25.75;;;7.90;80.40;;;;;;5022116;28;20652;-76
2023/02/12 05:18:41;;;;;;;31.02;26.08;;;7.90;79.60;;;;;;5038171;28;20021;-76
2023/02/12 05:21:07;;;;;;;32.65;27.40;;;7.90;78.90;;;;;;5020299;28;20390;-76
2023/02/12 05:23:35;;;;;;;32.75;27.60;;;7.90;78.80;;;;;;5038680;28;20047;-76
2023/02/12 05:26:03;;;;;;;33.97;27.50;;;8.00;78.70;;;;;;5035980;28;20072;-76
2023/02/12 05:28:29;;;;;;;37.63;30.33;;;8.00;78.70;;;;;;5036423;28;20478;-75
2023/02/12 05:30:59;;;;;;;37.88;31.55;;;8.00;78.80;;;;;;5021828;28;20033;-76
2023/02/12 05:33:25;;;;;;;37.47;30.55;;;7.90;78.90;;;;;;5022335;28;20025;-76
2023/02/12 05:35:51;;;;;;;37.00;30.67;;;8.00;78.90;;;;;;5036533;28;20099;-76
2023/02/12 05:38:17;;;;;;;39.05;31.63;;;8.00;78.90;;;;;;5035855;28;20558;-76
2023/02/12 05:40:42;;;;;;;37.45;31.27;;;8.00;78.60;;;;;;5039695;28;20043;-75
2023/02/12 05:43:08;;;;;;;35.78;29.08;;;8.00;78.50;;;;;;5040546;28;20438;-76
2023/02/12 05:45:34;;;;;;;34.47;28.08;;;7.90;78.60;;;;;;5035754;28;20029;-76
2023/02/12 05:47:59;;;;;;;35.20;28.23;;;7.80;78.50;;;;;;5039997;28;20024;-76
2023/02/12 05:50:25;;;;;;;35.22;27.00;;;7.90;78.70;;;;;;5037001;28;20032;-75
2023/02/12 05:52:51;;;;;;;33.60;26.50;;;7.80;78.20;;;;;;5037505;28;20461;-76
2023/02/12 05:55:16;;;;;;;35.20;28.25;;;7.80;78.10;;;;;;5039173;28;20032;-76
2023/02/12 05:57:42;;;;;;;33.10;26.42;;;7.80;78.30;;;;;;5037876;28;20448;-76
2023/02/12 06:00:09;;;;;;;32.83;26.52;;;7.80;78.60;;;;;;5036712;28;20036;-77
2023/02/12 06:02:35;;;;;;;36.15;27.85;;;7.80;78.70;;;;;;5020690;28;20170;-76
2023/02/12 06:05:01;;;;;;;34.22;27.98;;;7.80;78.60;;;;;;5038425;28;20029;-76
2023/02/12 06:07:27;;;;;;;34.17;27.00;;;7.90;78.40;;;;;;5035644;28;20434;-75
2023/02/12 06:09:54;;;;;;;35.03;27.17;;;7.90;78.40;;;;;;5038140;28;20440;-76
2023/02/12 06:12:20;;;;;;;32.20;25.65;;;7.80;78.40;;;;;;5038474;28;20056;-77
2023/02/12 06:14:46;;;;;;;38.90;29.15;;;7.80;78.40;;;;;;5034904;28;20025;-78
2023/02/12 06:17:12;;;;;;;33.30;27.65;;;7.80;78.30;;;;;;5036142;28;20048;-77
2023/02/12 06:19:38;;;;;;;33.65;26.90;;;7.80;78.40;;;;;;5036250;28;20423;-76
2023/02/12 06:22:04;;;;;;;36.72;28.48;;;7.80;78.50;;;;;;5019277;28;20072;-76
2023/02/12 06:24:29;;;;;;;35.72;29.05;;;7.80;78.70;;;;;;5034851;28;20029;-76
2023/02/12 06:26:55;;;;;;;37.72;29.02;;;7.80;78.80;;;;;;5036066;28;20029;-77
2023/02/12 06:29:21;;;;;;;38.22;28.88;;;7.80;78.70;;;;;;5036685;28;20048;-76
2023/02/12 06:31:47;;;;;;;33.97;27.65;;;7.80;78.80;;;;;;5035306;28;20037;-77
2023/02/12 06:34:15;;;;;;;35.50;28.23;;;7.80;78.90;;;;;;5038925;28;20025;-77
2023/02/12 06:36:43;;;;;;;35.80;27.17;;;7.80;79.10;;;;;;5040308;28;20049;-76
2023/02/12 06:39:10;;;;;;;38.10;29.60;;;7.80;79.20;;;;;;5040293;28;20020;-75
2023/02/12 06:41:36;;;;;;;37.72;30.27;;;7.80;79.20;;;;;;5039058;28;20493;-76
2023/02/12 06:44:02;;;;;;;36.47;28.92;;;7.80;79.10;;;;;;5037799;28;20048;-76
2023/02/12 06:46:28;;;;;;;37.60;29.00;;;7.80;79.10;;;;;;5036873;28;20041;-76
2023/02/12 06:48:55;;;;;;;37.92;29.27;;;7.80;79.10;;;;;;5040165;28;20087;-77
2023/02/12 06:51:22;;;;;;;44.08;31.67;;;7.70;79.10;;;;;;5039174;28;20044;-76
2023/02/12 06:53:49;;;;;;;42.05;32.28;;;7.70;79.10;;;;;;5038777;28;20017;-76
2023/02/12 06:56:16;;;;;;;51.13;36.13;;;7.70;79.10;;;;;;5034942;28;20053;-76
2023/02/12 06:58:46;;;;;;;52.35;38.75;;;7.70;79.10;;;;;;5039274;28;20182;-75
2023/02/12 07:01:16;;;;;;;57.47;40.92;;;7.60;78.60;;;;;;5020604;28;20386;-76
2023/02/12 07:03:47;;;;;;;56.10;41.60;;;7.60;78.30;;;;;;5037790;28;20024;-76
2023/02/12 07:06:13;;;;;;;51.78;37.38;;;7.60;78.20;;;;;;5036313;28;20047;-76
2023/02/12 07:08:39;;;;;;;50.30;37.65;;;7.60;78.30;;;;;;5036528;28;20017;-75
2023/02/12 07:11:05;;;;;;;49.47;36.63;;;7.70;78.50;;;;;;5033684;28;20036;-75
2023/02/12 07:13:33;;;;;;;51.60;35.83;;;7.70;78.60;;;;;;5037123;28;20049;-77
2023/02/12 07:16:06;;;;;;;51.22;37.20;;;7.70;78.70;;;;;;5038381;28;21781;-78
2023/02/12 07:18:33;;;;;;;50.28;37.30;;;7.70;78.80;;;;;;5035037;28;20354;-77
2023/02/12 07:20:58;;;;;;;52.53;36.88;;;7.70;78.90;;;;;;5037122;28;20044;-77
2023/02/12 07:23:24;;;;;;;53.25;38.78;;;7.70;78.90;;;;;;5037301;28;20032;-78
2023/02/12 07:25:58;;;;;;;56.90;40.30;;;7.80;78.90;;;;;;5034760;28;20036;-78
2023/02/12 07:28:24;;;;;;;53.65;37.50;;;7.80;78.70;;;;;;5037957;28;20017;-78
2023/02/12 07:30:50;;;;;;;65.93;46.55;;;7.70;78.60;;;;;;5035851;28;20044;-78
2023/02/12 07:33:16;;;;;;;62.95;44.83;;;7.80;78.40;;;;;;5037308;28;20110;-78
2023/02/12 07:35:41;;;;;;;63.38;47.58;;;7.80;78.30;;;;;;5035704;28;20151;-78
2023/02/12 07:38:07;;;;;;;63.15;45.15;;;7.80;78.20;;;;;;5038676;28;20021;-78
2023/02/12 07:40:33;;;;;;;61.35;45.40;;;7.80;78.10;;;;;;5035983;28;20029;-78
2023/02/12 07:42:58;;;;;;;56.15;42.42;;;7.80;78.20;;;;;;5035744;28;20770;-78
2023/02/12 07:45:24;;;;;;;56.65;40.58;;;7.80;78.30;;;;;;5035285;28;20062;-77
2023/02/12 07:47:50;;;;;;;53.72;40.55;;;7.80;78.20;;;;;;5033664;28;20047;-78
2023/02/12 07:50:16;;;;;;;61.15;44.92;;;7.90;78.20;;;;;;5015873;28;20029;-76
2023/02/12 07:52:42;;;;;;;66.07;47.78;;;7.90;78.10;;;;;;5035902;28;20116;-77
2023/02/12 07:55:08;;;;;;;64.93;48.45;;;7.90;78.00;;;;;;5035300;28;20025;-77
2023/02/12 07:57:35;;;;;;;64.68;46.53;;;7.90;77.70;;;;;;5031736;28;21183;-78
2023/02/12 08:00:00;;;;;;;58.60;44.15;;;7.90;77.60;;;;;;5034004;28;20624;-78
2023/02/12 08:02:26;;;;;;;48.20;37.30;;;7.90;77.20;;;;;;5030676;28;20034;-77
2023/02/12 08:04:56;;;;;;;48.05;37.70;;;7.90;76.50;;;;;;5032338;28;20029;-77
2023/02/12 08:07:22;;;;;;;47.92;36.55;;;7.90;75.80;;;;;;5036309;28;20090;-78
2023/02/12 08:09:47;;;;;;;45.13;36.80;;;7.90;75.20;;;;;;5033965;28;20025;-77
2023/02/12 08:12:13;;;;;;;50.83;39.28;;;7.90;75.20;;;;;;5017807;28;20037;-78
2023/02/12 08:14:39;;;;;;;45.88;36.28;;;8.00;75.00;;;;;;5035004;28;20457;-78
2023/02/12 08:17:07;;;;;;;47.47;38.30;;;8.00;75.20;;;;;;5035225;28;20041;-78
2023/02/12 08:19:33;;;;;;;51.47;38.92;;;8.10;75.20;;;;;;5035073;28;20013;-78
2023/02/12 08:22:01;;;;;;;49.50;40.10;;;8.10;75.20;;;;;;5035857;28;20052;-78
2023/02/12 08:24:26;;;;;;;47.75;39.78;;;8.10;75.80;;;;;;5036229;28;20033;-78
2023/02/12 08:26:52;;;;;;;49.72;39.10;;;8.10;76.00;;;;;;5034142;28;20384;-78
2023/02/12 08:29:21;;;;;;;49.65;37.60;;;8.00;75.60;;;;;;5037880;28;20148;-77
2023/02/12 08:31:48;;;;;;;45.63;37.67;;;8.10;75.50;;;;;;5017810;28;20041;-78
2023/02/12 08:34:19;;;;;;;49.50;39.35;;;8.10;75.40;;;;;;5038302;28;20426;-76
2023/02/12 08:36:46;;;;;;;50.47;40.03;;;8.10;75.00;;;;;;5019680;28;20044;-76
2023/02/12 08:39:13;;;;;;;48.13;39.15;;;8.10;74.90;;;;;;5037220;28;20091;-76
2023/02/12 08:41:41;;;;;;;52.40;39.85;;;8.20;74.60;;;;;;5036429;28;20061;-76
2023/02/12 08:44:07;;;;;;;54.40;40.60;;;8.20;74.20;;;;;;5040091;28;20029;-76
2023/02/12 08:46:35;;;;;;;63.08;46.30;;;8.20;74.20;;;;;;5037527;28;20116;-76
2023/02/12 08:49:06;;;;;;;68.45;48.35;;;8.30;74.30;;;;;;5021488;28;21471;-76
2023/02/12 08:51:37;;;;;;;69.30;48.70;;;8.30;74.40;;;;;;5018183;28;20040;-76
2023/02/12 08:54:05;;;;;;;60.17;44.47;;;8.40;74.50;;;;;;5038022;28;20532;-77
2023/02/12 08:56:34;;;;;;;64.00;47.55;;;8.40;74.70;;;;;;5018831;28;20254;-79
2023/02/12 08:59:02;;;;;;;65.95;48.38;;;8.40;74.70;;;;;;5038283;28;20040;-79
2023/02/12 09:01:31;;;;;;;169.25;132.13;;;8.40;74.60;;;;;;5041130;28;20168;-78
2023/02/12 09:03:58;;;;;;;53.28;42.25;;;8.50;74.60;;;;;;5024672;28;20138;-78
2023/02/12 09:06:25;;;;;;;49.08;38.78;;;8.40;73.80;;;;;;5038954;28;20077;-76
2023/02/12 09:08:52;;;;;;;45.03;36.40;;;8.40;73.40;;;;;;5040662;28;20032;-75
2023/02/12 09:11:29;;;;;;;44.85;36.25;;;8.40;73.00;;;;;;5040419;28;20136;-76
2023/02/12 09:13:59;;;;;;;40.55;33.38;;;8.50;72.60;;;;;;5037945;28;20024;-75
2023/02/12 09:16:26;;;;;;;44.45;34.53;;;8.50;72.10;;;;;;5035182;28;20353;-75
2023/02/12 09:18:53;;;;;;;44.30;34.83;;;8.60;72.00;;;;;;5021300;28;20028;-75
2023/02/12 09:21:20;;;;;;;48.58;38.67;;;8.60;72.20;;;;;;5037837;28;20037;-74
2023/02/12 09:23:46;;;;;;;48.38;37.78;;;8.60;72.40;;;;;;5037834;28;20106;-77
2023/02/12 09:26:14;;;;;;;51.65;37.83;;;8.60;72.40;;;;;;5021864;28;20496;-77
2023/02/12 09:28:40;;;;;;;50.80;38.78;;;8.70;72.20;;;;;;5037997;28;20064;-77
2023/02/12 09:31:14;;;;;;;46.50;36.22;;;8.70;71.80;;;;;;5041217;28;20037;-77
2023/02/12 09:33:41;;;;;;;43.25;34.72;;;8.80;71.90;;;;;;5045375;28;20044;-77
2023/02/12 09:36:12;;;;;;;46.13;34.90;;;8.90;71.80;;;;;;5033087;28;20045;-76
2023/02/12 09:38:38;;;;;;;42.22;34.70;;;8.90;71.30;;;;;;5041918;28;20025;-76
2023/02/12 09:41:22;;;;;;;42.28;34.10;;;9.00;70.80;;;;;;5043659;28;20040;-76
2023/02/12 09:43:57;;;;;;;43.17;36.95;;;9.10;71.00;;;;;;5043291;28;20044;-75
2023/02/12 09:46:22;;;;;;;50.63;41.85;;;9.10;70.50;;;;;;5043163;28;20037;-76
2023/02/12 09:49:09;;;;;;;44.13;38.28;;;9.10;70.20;;;;;;5046818;28;20059;-76
2023/02/12 09:51:38;;;;;;;49.95;41.92;;;9.10;69.40;;;;;;5045142;28;20122;-75
2023/02/12 09:54:11;;;;;;;50.55;41.22;;;9.10;69.20;;;;;;5028653;28;20021;-76
2023/02/12 09:56:39;;;;;;;44.17;36.90;;;9.10;69.70;;;;;;5039278;28;20514;-77
2023/02/12 09:59:07;;;;;;;41.60;35.75;;;9.20;69.80;;;;;;5046847;28;20025;-78
2023/02/12 10:01:34;;;;;;;40.97;33.88;;;9.40;69.50;;;;;;5044573;28;20041;-76
2023/02/12 10:04:00;;;;;;;39.60;34.22;;;9.50;69.20;;;;;;5044651;28;20067;-74
2023/02/12 10:06:30;;;;;;;40.92;35.33;;;9.60;69.30;;;;;;5041002;28;20065;-75
2023/02/12 10:09:08;;;;;;;41.75;35.50;;;9.70;69.10;;;;;;5041208;28;20025;-75
2023/02/12 10:11:51;;;;;;;39.45;32.78;;;9.60;66.90;;;;;;5021839;28;20087;-75
2023/02/12 10:14:33;;;;;;;36.63;31.95;;;9.50;65.50;;;;;;5041034;28;20033;-76
2023/02/12 10:17:23;;;;;;;39.05;32.75;;;9.60;65.10;;;;;;5034545;28;20056;-75
2023/02/12 10:20:26;;;;;;;39.80;33.50;;;9.60;65.20;;;;;;5035193;28;20028;-75
2023/02/12 10:23:16;;;;;;;40.35;34.42;;;9.70;64.60;;;;;;5039139;28;20044;-75
2023/02/12 10:26:07;;;;;;;38.05;31.70;;;9.80;64.20;;;;;;5035773;28;20047;-77
2023/02/12 10:28:42;;;;;;;31.83;25.80;;;9.60;63.10;;;;;;5025049;28;20428;-75
2023/02/12 10:31:35;;;;;;;35.30;29.52;;;9.60;62.20;;;;;;5030106;28;20029;-78
2023/02/12 10:34:15;;;;;;;38.50;31.48;;;9.40;63.60;;;;;;5025493;28;20330;-77
2023/02/12 10:36:49;;;;;;;43.80;34.95;;;9.60;64.00;;;;;;5039802;28;20155;-77
2023/02/12 10:39:28;;;;;;;40.85;33.72;;;9.70;63.90;;;;;;5040095;28;20134;-76
2023/02/12 10:42:09;;;;;;;47.03;38.00;;;9.70;64.60;;;;;;5037371;28;20029;-75
2023/02/12 10:44:35;;;;;;;40.88;34.88;;;9.80;63.90;;;;;;5034720;28;20030;-76
2023/02/12 10:47:01;;;;;;;42.17;32.72;;;9.80;64.60;;;;;;5035138;28;20457;-75
2023/02/12 10:49:31;;;;;;;43.05;35.33;;;10.00;63.90;;;;;;5039978;28;20599;-76
2023/02/12 10:52:30;;;;;;;44.72;37.47;;;9.90;63.90;;;;;;5044662;28;20101;-75
2023/02/12 10:54:56;;;;;;;36.80;29.27;;;10.00;63.00;;;;;;5037786;28;20022;-76
2023/02/12 10:57:22;;;;;;;33.50;27.77;;;10.10;63.20;;;;;;5041655;28;20106;-76
2023/02/12 10:59:51;;;;;;;32.00;27.83;;;10.10;63.20;;;;;;5023337;28;20036;-76
2023/02/12 11:02:24;;;;;;;33.53;27.92;;;10.10;63.10;;;;;;5023905;28;20069;-80
2023/02/12 11:04:51;;;;;;;35.85;26.92;;;10.10;62.80;;;;;;5042891;28;20464;-76
2023/02/12 11:07:17;;;;;;;37.83;31.10;;;10.00;62.40;;;;;;5027901;28;20075;-76
2023/02/12 11:09:48;;;;;;;33.63;28.50;;;10.10;63.10;;;;;;5028381;28;20898;-78
2023/02/12 11:12:46;;;;;;;34.13;29.02;;;10.00;63.40;;;;;;5039562;28;20032;-76
2023/02/12 11:15:12;;;;;;;36.25;28.92;;;10.10;64.10;;;;;;5036389;28;20023;-79
2023/02/12 11:17:41;;;;;;;33.70;26.88;;;9.80;63.90;;;;;;5043503;28;20075;-77
2023/02/12 11:20:16;;;;;;;33.80;27.60;;;9.70;64.60;;;;;;5043929;28;20437;-77
2023/02/12 11:22:55;;;;;;;32.63;25.60;;;9.80;64.80;;;;;;5039798;28;20068;-78
2023/02/12 11:25:23;;;;;;;31.27;27.05;;;9.90;63.60;;;;;;5043286;28;20025;-77
2023/02/12 11:28:00;;;;;;;31.40;25.70;;;9.80;64.40;;;;;;5037326;28;20500;-77
2023/02/12 11:30:26;;;;;;;31.48;26.17;;;9.80;64.50;;;;;;5038964;28;20048;-79
2023/02/12 11:32:52;;;;;;;31.50;26.27;;;9.80;64.40;;;;;;5038806;28;20078;-77
2023/02/12 11:35:29;;;;;;;33.60;25.77;;;9.90;65.10;;;;;;5040298;28;20849;-78
2023/02/12 11:37:58;;;;;;;29.98;25.88;;;9.90;65.10;;;;;;5041630;28;20041;-77
2023/02/12 11:40:30;;;;;;;34.05;26.77;;;9.90;64.10;;;;;;5041314;28;20026;-78
2023/02/12 11:43:05;;;;;;;36.15;27.35;;;10.00;64.90;;;;;;5046434;28;20041;-77
2023/02/12 11:45:40;;;;;;;31.13;24.88;;;10.10;65.40;;;;;;5033820;28;20021;-78
2023/02/12 11:48:26;;;;;;;31.60;24.55;;;10.10;65.10;;;;;;5040491;28;20021;-79
2023/02/12 11:50:55;;;;;;;29.25;23.92;;;10.20;64.10;;;;;;5040808;28;20396;-79
2023/02/12 11:53:47;;;;;;;29.25;23.05;;;10.20;63.90;;;;;;5041612;28;20021;-78
2023/02/12 11:56:13;;;;;;;27.42;23.13;;;10.10;64.00;;;;;;5035379;28;20465;-77
2023/02/12 11:58:39;;;;;;;28.27;23.42;;;10.10;63.60;;;;;;5045131;28;20021;-79
2023/02/12 12:01:23;;;;;;;28.05;23.63;;;10.20;64.40;;;;;;5039897;28;20065;-78
2023/02/12 12:04:13;;;;;;;26.00;22.33;;;10.30;64.30;;;;;;5035449;28;20021;-78
2023/02/12 12:06:44;;;;;;;27.05;21.38;;;10.40;64.40;;;;;;5040007;28;20476;-79
2023/02/12 12:09:20;;;;;;;26.83;22.33;;;10.50;64.00;;;;;;5026314;28;20385;-76
2023/02/12 12:12:07;;;;;;;33.10;27.25;;;10.60;64.60;;;;;;5043736;28;20040;-77
2023/02/12 12:21:08;;;;;;;32.58;24.73;;;10.80;63.80;;;;;;5043421;28;20059;-78
2023/02/12 12:23:40;;;;;;;33.67;23.88;;;10.80;63.00;;;;;;5043359;28;20017;-78
2023/02/12 12:26:19;;;;;;;29.83;21.75;;;11.00;62.90;;;;;;5043605;28;20075;-77
2023/02/12 12:29:01;;;;;;;29.00;22.75;;;10.90;62.30;;;;;;5043372;28;20485;-77
2023/02/12 12:31:46;;;;;;;30.83;22.88;;;10.90;62.50;;;;;;5042980;28;20044;-76
2023/02/12 12:34:23;;;;;;;29.77;22.05;;;10.90;62.50;;;;;;5038238;28;20025;-77
2023/02/12 12:37:17;;;;;;;32.42;23.63;;;11.00;61.50;;;;;;5045657;28;20048;-77
2023/02/12 12:39:48;;;;;;;33.10;25.83;;;11.10;62.10;;;;;;5045285;28;20045;-76
2023/02/12 12:42:14;;;;;;;34.88;26.80;;;11.10;62.10;;;;;;5050691;28;20029;-77
2023/02/12 12:45:07;;;;;;;40.50;30.00;;;11.10;61.50;;;;;;5050869;28;20060;-77
2023/02/12 12:47:58;;;;;;;31.23;24.98;;;11.00;61.30;;;;;;5042847;28;20041;-78
2023/02/12 12:50:36;;;;;;;44.70;37.70;;;11.10;62.10;;;;;;5042588;28;20037;-76
2023/02/12 12:53:31;;;;;;;34.65;26.48;;;11.10;61.80;;;;;;5050300;28;20028;-79
2023/02/12 12:56:32;;;;;;;28.23;22.60;;;11.10;61.00;;;;;;5034298;28;20102;-77
2023/02/12 12:59:13;;;;;;;28.70;22.83;;;10.90;60.40;;;;;;5048155;28;20018;-77
2023/02/12 13:01:51;;;;;;;31.15;23.70;;;10.80;61.80;;;;;;5044136;28;20542;-75
2023/02/12 13:04:28;;;;;;;31.42;25.75;;;10.90;62.10;;;;;;5046193;28;20024;-77
2023/02/12 13:06:56;;;;;;;33.08;24.42;;;10.90;61.60;;;;;;5039022;28;20355;-77
2023/02/12 13:09:57;;;;;;;30.90;23.38;;;10.90;61.10;;;;;;5049373;28;20029;-77